createdAt,value
2019-05-14T00:00:17.268Z,13.40
2019-05-14T00:02:47.229Z,13.40
2019-05-14T00:05:17.074Z,13.40
2019-05-14T00:07:46.729Z,13.30
2019-05-14T00:10:16.536Z,13.30
2019-05-14T00:12:46.335Z,13.30
2019-05-14T00:15:16.089Z,13.20
2019-05-14T00:17:46.576Z,13.20
2019-05-14T00:20:17.255Z,13.20
2019-05-14T00:22:46.930Z,13.10
2019-05-14T00:25:16.646Z,13.10
2019-05-14T00:27:46.337Z,13.10
2019-05-14T00:30:17.115Z,13.00
2019-05-14T00:32:46.894Z,13.00
2019-05-14T00:35:16.643Z,13.00
2019-05-14T00:37:47.477Z,12.90
2019-05-14T00:40:22.037Z,12.90
2019-05-14T00:42:53.250Z,12.90
2019-05-14T00:45:23.300Z,12.90
2019-05-14T00:47:52.985Z,12.80
2019-05-14T00:50:22.677Z,12.80
2019-05-14T00:52:52.371Z,12.80
2019-05-14T00:55:22.413Z,12.80
2019-05-14T00:57:52.447Z,12.70
2019-05-14T01:00:22.209Z,12.70
2019-05-14T01:02:53.508Z,12.70
2019-05-14T01:05:23.218Z,12.70
2019-05-14T01:07:52.934Z,12.60
2019-05-14T01:10:24.052Z,12.60
2019-05-14T01:12:53.725Z,12.60
2019-05-14T01:15:23.403Z,12.50
2019-05-14T01:17:54.554Z,12.50
2019-05-14T01:20:24.827Z,12.50
2019-05-14T01:22:54.511Z,12.50
2019-05-14T01:25:26.142Z,12.50
2019-05-14T01:27:55.828Z,12.40
2019-05-14T01:30:25.579Z,12.40
2019-05-14T01:32:55.279Z,12.40
2019-05-14T01:35:25.561Z,12.30
2019-05-14T01:37:55.903Z,12.30
2019-05-14T01:40:25.578Z,12.30
2019-05-14T01:42:55.248Z,12.30
2019-05-14T01:45:28.187Z,12.20
2019-05-14T01:47:56.330Z,12.20
2019-05-14T01:50:26.030Z,12.20
2019-05-14T01:52:55.664Z,12.10
2019-05-14T01:55:25.366Z,12.10
2019-05-14T01:57:55.058Z,12.10
2019-05-14T02:00:25.340Z,12.10
2019-05-14T02:02:54.984Z,12.10
2019-05-14T02:05:24.817Z,12.00
2019-05-14T02:07:54.476Z,12.00
2019-05-14T02:10:24.638Z,12.00
2019-05-14T02:12:54.342Z,12.00
2019-05-14T02:15:36.320Z,12.00
2019-05-14T02:17:55.395Z,11.90
2019-05-14T02:20:25.792Z,11.90
2019-05-14T02:22:55.439Z,11.90
2019-05-14T02:25:27.630Z,11.90
2019-05-14T02:27:58.609Z,11.80
2019-05-14T02:30:40.813Z,11.80
2019-05-14T02:32:59.764Z,11.80
2019-05-14T02:35:30.070Z,11.80
2019-05-14T02:37:59.917Z,11.80
2019-05-14T02:40:29.859Z,11.80
2019-05-14T02:42:59.644Z,11.70
2019-05-14T02:45:30.295Z,11.70
2019-05-14T02:48:00.702Z,11.70
2019-05-14T02:50:30.416Z,11.70
2019-05-14T02:53:00.179Z,11.70
2019-05-14T02:55:30.143Z,11.60
2019-05-14T02:58:10.038Z,11.60
2019-05-14T03:00:40.833Z,11.60
2019-05-14T03:03:12.368Z,11.60
2019-05-14T03:05:41.953Z,11.60
2019-05-14T03:08:11.640Z,11.50
2019-05-14T03:10:41.307Z,11.50
2019-05-14T03:13:11.277Z,11.50
2019-05-14T03:15:41.354Z,11.50
2019-05-14T03:18:11.030Z,11.50
2019-05-14T03:20:40.681Z,11.40
2019-05-14T03:23:17.809Z,11.40
2019-05-14T03:25:41.904Z,11.40
2019-05-14T03:28:19.602Z,11.40
2019-05-14T03:30:51.976Z,11.30
2019-05-14T03:33:22.477Z,11.30
2019-05-14T03:36:01.309Z,11.30
2019-05-14T03:38:29.340Z,11.30
2019-05-14T03:41:00.265Z,11.20
2019-05-14T03:43:30.586Z,11.20
2019-05-14T03:46:00.674Z,11.20
2019-05-14T03:48:30.335Z,11.20
2019-05-14T03:51:00.676Z,11.10
2019-05-14T03:53:31.070Z,11.10
2019-05-14T03:56:01.547Z,11.10
2019-05-14T03:58:31.831Z,11.10
2019-05-14T04:01:03.258Z,11.10
2019-05-14T04:03:34.770Z,11.10
2019-05-14T04:06:04.873Z,11.00
2019-05-14T04:08:39.263Z,11.00
2019-05-14T04:11:09.801Z,11.00
2019-05-14T04:13:41.599Z,11.00
2019-05-14T04:16:15.075Z,11.00
2019-05-14T04:18:50.387Z,10.90
2019-05-14T04:21:22.747Z,10.90
2019-05-14T04:23:53.879Z,11.00
2019-05-14T04:26:26.362Z,10.90
2019-05-14T04:29:01.241Z,10.90
2019-05-14T04:31:32.789Z,10.90
2019-05-14T04:34:04.305Z,10.90
2019-05-14T04:36:34.153Z,10.90
2019-05-14T04:39:05.206Z,10.90
2019-05-14T04:41:35.180Z,11.00
2019-05-14T04:44:05.026Z,11.00
2019-05-14T04:46:34.703Z,11.00
2019-05-14T04:49:04.387Z,11.00
2019-05-14T04:51:34.247Z,11.10
2019-05-14T04:54:04.324Z,11.10
2019-05-14T04:56:33.990Z,11.10
2019-05-14T04:59:03.863Z,11.10
2019-05-14T05:01:33.823Z,11.20
2019-05-14T05:04:05.869Z,11.20
2019-05-14T05:06:35.558Z,11.20
2019-05-14T05:09:09.309Z,11.20
2019-05-14T05:11:39.803Z,11.30
2019-05-14T05:14:09.584Z,11.30
2019-05-14T05:16:39.460Z,11.40
2019-05-14T05:19:10.440Z,11.40
2019-05-14T05:21:40.574Z,11.50
2019-05-14T05:24:10.262Z,11.50
2019-05-14T05:26:39.946Z,11.60
2019-05-14T05:29:10.512Z,11.60
2019-05-14T05:31:41.774Z,11.70
2019-05-14T05:34:11.451Z,11.70
2019-05-14T05:36:41.187Z,11.80
2019-05-14T05:39:10.876Z,11.80
2019-05-14T05:41:42.011Z,11.90
2019-05-14T05:44:11.661Z,12.00
2019-05-14T05:46:43.221Z,12.00
2019-05-14T05:49:12.754Z,12.10
2019-05-14T05:51:43.767Z,12.20
2019-05-14T05:54:13.450Z,12.20
2019-05-14T05:56:43.116Z,12.30
2019-05-14T05:59:12.876Z,12.40
2019-05-14T06:01:46.531Z,12.50
2019-05-14T06:04:14.331Z,12.50
2019-05-14T06:06:44.691Z,12.60
2019-05-14T06:09:14.437Z,12.70
2019-05-14T06:11:44.486Z,12.80
2019-05-14T06:14:14.195Z,12.90
2019-05-14T06:16:44.775Z,13.00
2019-05-14T06:19:14.449Z,13.10
2019-05-14T06:21:45.272Z,13.20
2019-05-14T06:24:15.016Z,13.30
2019-05-14T06:26:44.712Z,13.40
2019-05-14T06:29:14.718Z,13.60
2019-05-14T06:31:44.413Z,13.80
2019-05-14T06:34:15.732Z,14.20
2019-05-14T06:36:49.263Z,14.40
2019-05-14T06:39:18.948Z,14.70
2019-05-14T06:41:49.164Z,15.00
2019-05-14T06:44:18.938Z,15.10
2019-05-14T06:46:52.696Z,15.20
2019-05-14T06:49:21.936Z,15.30
2019-05-14T06:51:51.538Z,15.30
2019-05-14T06:54:21.426Z,15.40
2019-05-14T06:56:51.172Z,15.50
2019-05-14T06:59:20.825Z,15.50
2019-05-14T07:01:51.622Z,15.50
2019-05-14T07:04:22.653Z,15.50
2019-05-14T07:06:52.354Z,15.60
2019-05-14T07:09:22.191Z,15.60
2019-05-14T07:11:52.010Z,15.70
2019-05-14T07:14:21.738Z,16.00
2019-05-14T07:16:51.424Z,16.30
2019-05-14T07:19:21.114Z,16.50
2019-05-14T07:21:50.784Z,16.60
2019-05-14T07:24:20.708Z,16.80
2019-05-14T07:26:50.389Z,17.10
2019-05-14T07:29:20.086Z,17.40
2019-05-14T07:31:49.708Z,17.40
2019-05-14T07:34:19.551Z,17.40
2019-05-14T07:36:50.806Z,17.40
2019-05-14T07:39:20.870Z,17.40
2019-05-14T07:41:50.529Z,17.30
2019-05-14T07:44:22.630Z,17.30
2019-05-14T07:46:52.246Z,17.30
2019-05-14T07:49:24.523Z,17.30
2019-05-14T07:51:54.204Z,17.30
2019-05-14T07:54:28.396Z,17.40
2019-05-14T07:56:59.562Z,17.60
2019-05-14T07:59:29.255Z,17.80
2019-05-14T08:01:58.936Z,17.90
2019-05-14T08:04:29.138Z,17.90
2019-05-14T08:06:59.309Z,18.00
2019-05-14T08:09:28.997Z,18.00
2019-05-14T08:11:58.922Z,18.00
2019-05-14T08:14:30.179Z,18.00
2019-05-14T08:17:00.302Z,18.00
2019-05-14T08:19:31.521Z,18.00
2019-05-14T08:22:01.393Z,18.00
2019-05-14T08:24:33.150Z,18.10
2019-05-14T08:27:02.811Z,18.20
2019-05-14T08:29:32.472Z,18.20
2019-05-14T08:32:02.181Z,18.30
2019-05-14T08:34:32.380Z,18.40
2019-05-14T08:37:03.826Z,18.40
2019-05-14T08:39:33.710Z,18.50
2019-05-14T08:42:04.389Z,18.60
2019-05-14T08:44:34.656Z,18.70
2019-05-14T08:47:05.446Z,18.90
2019-05-14T08:49:42.482Z,19.00
2019-05-14T08:52:08.785Z,19.10
2019-05-14T08:54:39.215Z,19.10
2019-05-14T08:57:10.518Z,19.20
2019-05-14T09:00:03.001Z,19.30
2019-05-14T09:02:32.649Z,19.40
2019-05-14T09:05:04.472Z,19.40
2019-05-14T09:07:33.679Z,19.50
2019-05-14T09:10:03.947Z,19.50
2019-05-14T09:12:33.616Z,19.50
2019-05-14T09:15:03.526Z,19.60
2019-05-14T09:17:34.065Z,19.60
2019-05-14T09:20:07.170Z,19.60
2019-05-14T09:22:39.561Z,19.70
2019-05-14T09:25:09.097Z,19.90
2019-05-14T09:27:39.048Z,20.10
2019-05-14T09:30:10.723Z,20.20
2019-05-14T09:32:40.323Z,20.30
2019-05-14T09:35:10.563Z,20.30
2019-05-14T09:37:40.163Z,20.40
2019-05-14T09:40:10.534Z,20.40
2019-05-14T09:42:40.141Z,20.40
2019-05-14T09:45:11.637Z,20.50
2019-05-14T09:47:42.259Z,20.50
2019-05-14T09:50:22.038Z,20.50
2019-05-14T09:52:44.263Z,20.60
2019-05-14T09:55:15.479Z,20.50
2019-05-14T09:57:45.165Z,20.70
2019-05-14T10:00:18.626Z,20.70
2019-05-14T10:02:49.468Z,20.80
2019-05-14T10:05:19.647Z,20.80
2019-05-14T10:07:49.649Z,20.80
2019-05-14T10:10:19.827Z,20.80
2019-05-14T10:12:56.386Z,20.80
2019-05-14T10:15:21.587Z,20.80
2019-05-14T10:17:52.566Z,20.90
2019-05-14T10:20:36.427Z,21.00
2019-05-14T10:22:55.476Z,21.00
2019-05-14T10:25:25.172Z,21.00
2019-05-14T10:27:55.049Z,21.20
2019-05-14T10:30:25.598Z,21.30
2019-05-14T10:32:55.372Z,21.50
2019-05-14T10:35:25.064Z,21.60
2019-05-14T10:37:54.732Z,21.80
2019-05-14T10:40:24.483Z,21.70
2019-05-14T10:42:57.131Z,21.70
2019-05-14T10:45:28.886Z,21.70
2019-05-14T10:47:59.000Z,21.70
2019-05-14T10:50:29.033Z,21.70
2019-05-14T10:52:59.535Z,21.70
2019-05-14T10:55:29.665Z,21.70
2019-05-14T10:57:59.309Z,21.70
2019-05-14T11:00:30.598Z,21.70
2019-05-14T11:03:00.265Z,21.70
2019-05-14T11:05:29.959Z,21.80
2019-05-14T11:07:59.696Z,21.80
2019-05-14T11:10:31.105Z,21.90
2019-05-14T11:13:00.783Z,22.00
2019-05-14T11:15:31.255Z,22.10
2019-05-14T11:18:00.929Z,22.20
2019-05-14T11:20:31.280Z,22.30
2019-05-14T11:23:01.168Z,22.30
2019-05-14T11:25:30.838Z,22.40
2019-05-14T11:28:00.678Z,22.40
2019-05-14T11:30:30.571Z,22.50
2019-05-14T11:33:00.237Z,22.50
2019-05-14T11:35:29.944Z,22.50
2019-05-14T11:37:59.619Z,22.50
2019-05-14T11:40:29.544Z,22.50
2019-05-14T11:42:59.475Z,22.50
2019-05-14T11:45:29.502Z,22.50
2019-05-14T11:47:59.169Z,22.60
2019-05-14T11:50:30.108Z,22.60
2019-05-14T11:52:59.764Z,22.60
2019-05-14T11:55:29.434Z,22.60
2019-05-14T11:57:59.112Z,22.50
2019-05-14T12:00:29.650Z,22.60
2019-05-14T12:02:59.499Z,22.60
2019-05-14T12:05:30.409Z,22.60
2019-05-14T12:08:00.650Z,22.60
2019-05-14T12:10:30.401Z,22.70
2019-05-14T12:13:00.082Z,22.80
2019-05-14T12:15:29.772Z,22.80
2019-05-14T12:17:59.782Z,22.80
2019-05-14T12:20:29.877Z,22.90
2019-05-14T12:23:00.145Z,22.90
2019-05-14T12:25:29.794Z,23.00
2019-05-14T12:27:59.503Z,23.00
2019-05-14T12:30:29.184Z,23.10
2019-05-14T12:32:59.186Z,23.10
2019-05-14T12:35:29.472Z,23.20
2019-05-14T12:37:59.302Z,23.20
2019-05-14T12:40:29.139Z,23.30
2019-05-14T12:42:59.418Z,23.30
2019-05-14T12:45:30.050Z,23.30
2019-05-14T12:48:00.130Z,23.40
2019-05-14T12:50:29.813Z,23.40
2019-05-14T12:52:59.548Z,23.40
2019-05-14T12:55:29.944Z,23.50
2019-05-14T12:58:00.039Z,23.50
2019-05-14T13:00:29.732Z,23.50
2019-05-14T13:02:59.514Z,23.60
2019-05-14T13:05:29.529Z,23.60
2019-05-14T13:07:59.469Z,23.60
2019-05-14T13:10:29.802Z,23.60
2019-05-14T13:13:00.862Z,23.50
2019-05-14T13:15:30.565Z,23.50
2019-05-14T13:18:00.187Z,23.50
2019-05-14T13:20:29.875Z,23.60
2019-05-14T13:22:59.554Z,23.60
2019-05-14T13:25:30.335Z,23.70
2019-05-14T13:28:01.927Z,23.60
2019-05-14T13:30:33.198Z,23.60
2019-05-14T13:33:02.812Z,23.60
2019-05-14T13:35:32.484Z,23.80
2019-05-14T13:38:02.169Z,23.80
2019-05-14T13:40:31.941Z,24.00
2019-05-14T13:43:01.926Z,24.10
2019-05-14T13:45:31.598Z,24.10
2019-05-14T13:48:01.264Z,24.50
2019-05-14T13:50:30.930Z,25.70
2019-05-14T13:53:07.508Z,27.10
2019-05-14T13:55:32.296Z,28.40
2019-05-14T13:58:01.914Z,29.40
2019-05-14T14:00:31.695Z,30.40
2019-05-14T14:03:01.601Z,31.40
2019-05-14T14:05:31.368Z,32.00
2019-05-14T14:08:01.263Z,33.00
2019-05-14T14:10:36.223Z,33.90
2019-05-14T14:13:06.136Z,34.80
2019-05-14T14:15:33.600Z,35.50
2019-05-14T14:18:03.267Z,36.20
2019-05-14T14:20:32.879Z,36.80
2019-05-14T14:23:17.466Z,37.50
2019-05-14T14:25:33.856Z,38.10
2019-05-14T14:28:03.715Z,38.70
2019-05-14T14:30:33.366Z,39.40
2019-05-14T14:33:04.680Z,39.90
2019-05-14T14:35:38.782Z,40.50
2019-05-14T14:38:08.895Z,41.20
2019-05-14T14:40:40.023Z,42.00
2019-05-14T14:43:09.796Z,42.70
2019-05-14T14:45:46.081Z,43.50
2019-05-14T14:48:12.544Z,44.10
2019-05-14T14:50:44.045Z,44.80
2019-05-14T14:53:13.640Z,45.30
2019-05-14T14:55:43.319Z,45.60
2019-05-14T14:58:13.787Z,46.10
2019-05-14T15:00:43.464Z,46.70
2019-05-14T15:03:13.264Z,47.10
2019-05-14T15:05:42.974Z,47.40
2019-05-14T15:08:12.621Z,47.70
2019-05-14T15:10:42.354Z,47.70
2019-05-14T15:13:14.070Z,47.90
2019-05-14T15:15:43.744Z,48.00
2019-05-14T15:18:14.113Z,48.00
2019-05-14T15:20:44.063Z,47.90
2019-05-14T15:23:13.736Z,47.80
2019-05-14T15:25:48.432Z,47.80
2019-05-14T15:28:18.899Z,47.80
2019-05-14T15:30:50.423Z,47.80
2019-05-14T15:33:20.124Z,48.00
2019-05-14T15:35:49.820Z,48.10
2019-05-14T15:38:21.857Z,48.10
2019-05-14T15:40:51.670Z,48.00
2019-05-14T15:43:22.846Z,48.00
2019-05-14T15:45:52.583Z,48.00
2019-05-14T15:48:22.249Z,47.90
2019-05-14T15:50:51.848Z,47.60
2019-05-14T15:53:21.520Z,47.50
2019-05-14T15:55:52.614Z,47.50
2019-05-14T15:58:23.644Z,47.50
2019-05-14T16:00:53.312Z,47.40
2019-05-14T16:03:22.948Z,47.40
2019-05-14T16:05:52.715Z,47.30
2019-05-14T16:08:23.871Z,47.40
2019-05-14T16:10:53.463Z,47.20
2019-05-14T16:13:23.163Z,47.00
2019-05-14T16:15:56.098Z,47.00
2019-05-14T16:18:25.742Z,47.00
2019-05-14T16:20:55.435Z,46.90
2019-05-14T16:23:25.122Z,46.90
2019-05-14T16:25:54.834Z,46.90
2019-05-14T16:28:24.512Z,46.70
2019-05-14T16:30:54.173Z,46.60
2019-05-14T16:33:23.844Z,46.60
2019-05-14T16:35:53.561Z,46.50
2019-05-14T16:38:23.412Z,46.50
2019-05-14T16:40:54.553Z,46.40
2019-05-14T16:43:24.360Z,46.40
2019-05-14T16:45:55.757Z,46.30
2019-05-14T16:48:25.444Z,46.00
2019-05-14T16:50:55.112Z,45.70
2019-05-14T16:53:24.774Z,45.60
2019-05-14T16:55:54.513Z,45.50
2019-05-14T16:58:24.661Z,45.50
2019-05-14T17:00:54.314Z,45.40
2019-05-14T17:03:23.986Z,45.20
2019-05-14T17:05:53.665Z,44.90
2019-05-14T17:08:23.437Z,44.70
2019-05-14T17:10:53.110Z,44.50
2019-05-14T17:13:22.802Z,44.40
2019-05-14T17:15:52.462Z,44.30
2019-05-14T17:18:23.453Z,44.20
2019-05-14T17:20:53.155Z,43.90
2019-05-14T17:23:22.819Z,43.60
2019-05-14T17:25:54.579Z,43.50
2019-05-14T17:28:24.426Z,43.30
2019-05-14T17:30:54.084Z,43.00
2019-05-14T17:33:23.776Z,42.70
2019-05-14T17:35:53.443Z,42.60
2019-05-14T17:38:23.104Z,42.50
2019-05-14T17:40:52.737Z,42.30
2019-05-14T17:43:23.264Z,41.90
2019-05-14T17:45:53.186Z,41.60
2019-05-14T17:48:22.768Z,41.30
2019-05-14T17:50:52.448Z,41.00
2019-05-14T17:53:22.455Z,40.70
2019-05-14T17:55:52.156Z,40.60
2019-05-14T17:58:21.776Z,40.40
2019-05-14T18:00:52.383Z,40.30
2019-05-14T18:03:22.632Z,40.10
2019-05-14T18:05:52.342Z,40.00
2019-05-14T18:08:22.973Z,39.80
2019-05-14T18:10:52.621Z,39.60
2019-05-14T18:13:22.291Z,39.30
2019-05-14T18:15:53.276Z,38.90
2019-05-14T18:18:22.915Z,38.70
2019-05-14T18:20:52.671Z,38.40
2019-05-14T18:23:22.325Z,38.10
2019-05-14T18:26:03.375Z,37.80
2019-05-14T18:28:23.324Z,37.50
2019-05-14T18:30:52.995Z,37.30
2019-05-14T18:33:22.673Z,37.00
2019-05-14T18:35:52.360Z,36.70
2019-05-14T18:38:23.658Z,36.50
2019-05-14T18:40:53.341Z,36.20
2019-05-14T18:43:22.952Z,35.90
2019-05-14T18:45:52.612Z,35.60
2019-05-14T18:48:22.279Z,35.30
2019-05-14T18:50:51.972Z,35.00
2019-05-14T18:53:23.307Z,34.50
2019-05-14T18:55:52.984Z,33.90
2019-05-14T18:58:26.023Z,33.20
2019-05-14T19:00:58.451Z,32.40
2019-05-14T19:03:28.661Z,31.60
2019-05-14T19:05:58.846Z,31.00
2019-05-14T19:08:30.784Z,30.30
2019-05-14T19:11:03.668Z,29.70
2019-05-14T19:13:33.514Z,29.10
2019-05-14T19:16:03.257Z,28.50
2019-05-14T19:18:32.934Z,28.00
2019-05-14T19:21:02.555Z,27.50
2019-05-14T19:23:38.264Z,27.00
2019-05-14T19:26:09.539Z,26.60
2019-05-14T19:28:39.364Z,26.10
2019-05-14T19:31:09.265Z,25.70
2019-05-14T19:33:38.943Z,25.30
2019-05-14T19:36:09.006Z,25.00
2019-05-14T19:38:39.173Z,24.60
2019-05-14T19:41:09.121Z,24.30
2019-05-14T19:43:41.842Z,24.00
2019-05-14T19:46:11.579Z,23.70
2019-05-14T19:48:41.255Z,23.40
2019-05-14T19:51:11.020Z,23.10
2019-05-14T19:53:40.972Z,22.80
2019-05-14T19:56:17.929Z,22.60
2019-05-14T19:58:47.580Z,22.30
2019-05-14T20:01:19.373Z,22.00
2019-05-14T20:03:51.261Z,21.80
2019-05-14T20:06:20.979Z,21.60
2019-05-14T20:08:52.117Z,21.40
2019-05-14T20:11:25.839Z,21.20
2019-05-14T20:13:54.697Z,21.00
2019-05-14T20:16:31.620Z,20.80
2019-05-14T20:19:02.146Z,20.60
2019-05-14T20:21:31.813Z,20.40
2019-05-14T20:24:01.779Z,20.30
2019-05-14T20:26:31.434Z,20.20
2019-05-14T20:29:01.227Z,20.00
2019-05-14T20:31:32.357Z,19.90
2019-05-14T20:34:02.029Z,19.70
2019-05-14T20:36:31.730Z,19.60
2019-05-14T20:39:02.414Z,19.50
2019-05-14T20:41:34.552Z,19.40
2019-05-14T20:44:09.597Z,19.20
2019-05-14T20:46:39.261Z,19.10
2019-05-14T20:49:09.012Z,19.00
2019-05-14T20:51:39.191Z,18.90
2019-05-14T20:54:09.152Z,18.80
2019-05-14T20:56:40.343Z,18.70
2019-05-14T20:59:10.340Z,18.60
2019-05-14T21:01:39.998Z,18.50
2019-05-14T21:04:11.323Z,18.50
2019-05-14T21:06:41.088Z,18.40
2019-05-14T21:09:13.206Z,18.30
2019-05-14T21:11:49.295Z,18.20
2019-05-14T21:14:19.784Z,18.10
2019-05-14T21:16:49.374Z,17.90
2019-05-14T21:19:19.070Z,18.00
2019-05-14T21:21:49.274Z,17.90
2019-05-14T21:24:21.949Z,17.80
2019-05-14T21:26:50.538Z,17.80
2019-05-14T21:29:20.207Z,17.70
2019-05-14T21:31:53.205Z,17.60
2019-05-14T21:34:22.899Z,17.60
2019-05-14T21:36:52.572Z,17.50
2019-05-14T21:39:22.210Z,17.50
2019-05-14T21:41:51.834Z,17.40
2019-05-14T21:44:21.491Z,17.30
2019-05-14T21:46:53.252Z,17.30
2019-05-14T21:49:22.859Z,17.20
2019-05-14T21:51:52.631Z,17.20
2019-05-14T21:54:22.573Z,17.10
2019-05-14T21:56:52.444Z,17.10
2019-05-14T21:59:22.323Z,17.00
2019-05-14T22:01:52.354Z,17.00
2019-05-14T22:04:22.032Z,16.90
2019-05-14T22:06:51.691Z,16.90
2019-05-14T22:09:21.498Z,16.80
2019-05-14T22:11:51.189Z,16.80
2019-05-14T22:14:23.535Z,16.70
2019-05-14T22:16:53.203Z,16.70
2019-05-14T22:19:22.927Z,16.60
2019-05-14T22:21:52.612Z,16.60
2019-05-14T22:24:22.274Z,16.50
2019-05-14T22:26:51.972Z,16.40
2019-05-14T22:29:21.587Z,16.40
2019-05-14T22:31:51.242Z,16.30
2019-05-14T22:34:20.934Z,16.20
2019-05-14T22:36:50.612Z,16.20
2019-05-14T22:39:20.274Z,16.10
2019-05-14T22:41:50.654Z,16.10
2019-05-14T22:44:20.277Z,16.00
2019-05-14T22:46:49.868Z,16.00
2019-05-14T22:49:19.568Z,15.90
2019-05-14T22:51:49.473Z,15.90
2019-05-14T22:54:20.865Z,15.90
2019-05-14T22:56:50.590Z,15.80
2019-05-14T22:59:20.601Z,15.70
2019-05-14T23:01:50.400Z,15.70
2019-05-14T23:04:20.053Z,15.70
2019-05-14T23:06:50.957Z,15.60
2019-05-14T23:09:20.574Z,15.60
2019-05-14T23:11:50.263Z,15.50
2019-05-14T23:14:21.085Z,15.50
2019-05-14T23:16:52.116Z,15.40
2019-05-14T23:19:21.991Z,15.40
2019-05-14T23:21:51.742Z,15.40
2019-05-14T23:24:21.681Z,15.30
2019-05-14T23:26:51.295Z,15.30
2019-05-14T23:29:20.972Z,15.20
2019-05-14T23:31:50.670Z,15.20
2019-05-14T23:34:21.658Z,15.20
2019-05-14T23:36:51.329Z,15.10
2019-05-14T23:39:21.995Z,15.10
2019-05-14T23:41:52.098Z,15.00
2019-05-14T23:44:21.776Z,15.00
2019-05-14T23:46:51.446Z,14.90
2019-05-14T23:49:21.132Z,14.90
2019-05-14T23:51:50.784Z,14.80
2019-05-14T23:54:20.379Z,14.80
2019-05-14T23:56:50.015Z,14.70
2019-05-14T23:59:19.679Z,14.70
